createdAt,value
2019-05-22T00:00:01.220Z,100769.18
2019-05-22T00:02:40.147Z,100767.81
2019-05-22T00:05:15.546Z,100774.86
2019-05-22T00:07:47.197Z,100770.48
2019-05-22T00:10:19.825Z,100770.13
2019-05-22T00:12:50.151Z,100772.43
2019-05-22T00:15:21.534Z,100771.12
2019-05-22T00:17:53.856Z,100771.09
2019-05-22T00:20:25.050Z,100775.09
2019-05-22T00:22:55.095Z,100771.62
2019-05-22T00:25:33.181Z,100776.42
2019-05-22T00:28:02.204Z,100771.00
2019-05-22T00:30:36.102Z,100768.44
2019-05-22T00:33:07.985Z,100773.34
2019-05-22T00:35:38.638Z,100776.23
2019-05-22T00:38:09.845Z,100773.95
2019-05-22T00:40:45.553Z,100771.53
2019-05-22T00:43:17.364Z,100778.27
2019-05-22T00:45:50.946Z,100773.98
2019-05-22T00:48:25.080Z,100778.38
2019-05-22T00:51:16.939Z,100779.92
2019-05-22T00:53:58.732Z,100778.70
2019-05-22T00:56:39.016Z,100779.21
2019-05-22T00:59:17.426Z,100785.44
2019-05-22T01:01:50.743Z,100786.93
2019-05-22T01:04:23.711Z,100786.23
2019-05-22T01:06:55.253Z,100789.11
2019-05-22T01:09:31.997Z,100791.48
2019-05-22T01:12:03.273Z,100793.72
2019-05-22T01:14:44.807Z,100794.62
2019-05-22T01:17:15.963Z,100796.08
2019-05-22T01:19:47.474Z,100805.33
2019-05-22T01:22:17.907Z,100807.11
2019-05-22T01:24:51.098Z,100806.50
2019-05-22T01:27:22.850Z,100814.82
2019-05-22T01:29:53.949Z,100811.94
2019-05-22T01:32:29.451Z,100797.28
2019-05-22T01:34:59.510Z,100818.53
2019-05-22T01:37:31.142Z,100815.81
2019-05-22T01:40:12.426Z,100824.22
2019-05-22T01:42:45.279Z,100816.75
2019-05-22T01:45:18.525Z,100824.22
2019-05-22T01:47:54.402Z,100816.75
2019-05-22T01:50:51.183Z,100822.08
2019-05-22T01:53:24.218Z,100818.27
2019-05-22T01:56:00.876Z,100818.69
2019-05-22T01:58:31.956Z,100817.66
2019-05-22T02:01:03.591Z,100821.71
2019-05-22T02:03:36.735Z,100816.75
2019-05-22T02:06:07.495Z,100816.39
2019-05-22T02:08:44.233Z,100814.19
2019-05-22T02:11:18.803Z,100810.70
2019-05-22T02:13:59.444Z,100810.97
2019-05-22T02:16:32.061Z,100805.20
2019-05-22T02:19:05.388Z,100814.42
2019-05-22T02:21:35.851Z,100815.30
2019-05-22T02:24:06.671Z,100813.45
2019-05-22T02:26:37.611Z,100809.64
2019-05-22T02:29:09.061Z,100813.63
2019-05-22T02:31:40.782Z,100817.38
2019-05-22T02:34:10.762Z,100817.38
2019-05-22T02:36:41.941Z,100818.79
2019-05-22T02:39:24.014Z,100819.08
2019-05-22T02:41:58.113Z,100822.17
2019-05-22T02:44:29.948Z,100818.17
2019-05-22T02:47:16.681Z,100822.25
2019-05-22T02:49:32.971Z,100825.81
2019-05-22T02:52:03.692Z,100825.05
2019-05-22T02:54:34.423Z,100824.09
2019-05-22T02:57:04.805Z,100828.56
2019-05-22T02:59:35.012Z,100786.25
2019-05-22T03:02:06.932Z,100829.44
2019-05-22T03:05:11.272Z,100830.45
2019-05-22T03:07:42.100Z,100830.03
2019-05-22T03:10:18.894Z,100834.52
2019-05-22T03:12:52.278Z,100832.03
2019-05-22T03:15:26.115Z,100829.56
2019-05-22T03:18:08.546Z,100838.52
2019-05-22T03:20:40.412Z,100833.31
2019-05-22T03:23:35.763Z,100834.22
2019-05-22T03:26:08.440Z,100831.64
2019-05-22T03:28:38.842Z,100832.65
2019-05-22T03:31:10.350Z,100829.06
2019-05-22T03:33:41.320Z,100830.81
2019-05-22T03:36:18.329Z,100834.48
2019-05-22T03:38:48.923Z,100826.09
2019-05-22T03:41:19.324Z,100835.81
2019-05-22T03:43:50.999Z,100833.05
2019-05-22T03:46:39.185Z,100845.00
2019-05-22T03:49:28.375Z,100839.38
2019-05-22T03:51:45.682Z,100839.05
2019-05-22T03:54:16.396Z,100840.97
2019-05-22T03:56:47.986Z,100838.30
2019-05-22T03:59:17.499Z,100842.37
2019-05-22T04:01:47.173Z,100839.12
2019-05-22T04:04:34.330Z,100838.62
2019-05-22T04:07:03.831Z,100844.02
2019-05-22T04:09:33.441Z,100838.23
2019-05-22T04:12:03.554Z,100840.89
2019-05-22T04:14:38.025Z,100748.30
2019-05-22T04:17:10.100Z,100845.51
2019-05-22T04:19:49.387Z,100844.05
2019-05-22T04:22:13.445Z,100847.64
2019-05-22T04:24:44.379Z,100848.59
2019-05-22T04:27:14.309Z,100837.03
2019-05-22T04:29:44.632Z,100841.02
2019-05-22T04:32:17.934Z,100847.77
2019-05-22T04:34:48.623Z,100847.92
2019-05-22T04:37:20.114Z,100848.86
2019-05-22T04:39:52.806Z,100850.45
2019-05-22T04:42:27.400Z,100845.11
2019-05-22T04:45:12.329Z,100850.23
2019-05-22T04:47:46.427Z,100850.59
2019-05-22T04:50:17.256Z,100857.70
2019-05-22T04:52:48.553Z,100857.98
2019-05-22T04:55:19.094Z,100864.14
2019-05-22T04:57:49.898Z,100859.19
2019-05-22T05:00:22.269Z,100857.78
2019-05-22T05:02:51.955Z,100864.58
2019-05-22T05:05:25.193Z,100866.88
2019-05-22T05:07:56.544Z,100863.83
2019-05-22T05:10:26.613Z,100864.28
2019-05-22T05:12:59.394Z,100866.48
2019-05-22T05:15:29.156Z,100864.22
2019-05-22T05:17:59.274Z,100870.11
2019-05-22T05:20:32.294Z,100871.02
2019-05-22T05:23:02.614Z,100872.04
2019-05-22T05:25:33.805Z,100874.70
2019-05-22T05:28:05.339Z,100876.34
2019-05-22T05:30:35.103Z,100875.97
2019-05-22T05:33:05.493Z,100880.69
2019-05-22T05:35:36.463Z,100880.13
2019-05-22T05:38:06.637Z,100880.78
2019-05-22T05:40:42.641Z,100879.36
2019-05-22T05:43:14.577Z,100878.46
2019-05-22T05:45:46.787Z,100884.17
2019-05-22T05:48:21.522Z,100889.49
2019-05-22T05:51:34.465Z,100887.31
2019-05-22T05:54:10.876Z,100888.90
2019-05-22T05:56:42.386Z,100895.10
2019-05-22T05:59:14.220Z,100892.64
2019-05-22T06:01:47.479Z,100889.13
2019-05-22T06:04:34.866Z,100891.90
2019-05-22T06:07:19.316Z,100895.75
2019-05-22T06:09:55.277Z,100889.78
2019-05-22T06:12:25.393Z,100894.25
2019-05-22T06:14:55.221Z,100899.40
2019-05-22T06:18:04.537Z,100896.06
2019-05-22T06:20:34.888Z,100893.45
2019-05-22T06:23:46.584Z,100893.09
2019-05-22T06:26:28.512Z,100893.69
2019-05-22T06:28:59.116Z,100897.08
2019-05-22T06:31:40.438Z,100891.94
2019-05-22T06:34:10.919Z,100900.05
2019-05-22T06:36:42.945Z,100900.64
2019-05-22T06:39:15.748Z,100908.11
2019-05-22T06:41:46.820Z,100904.97
2019-05-22T06:44:41.000Z,100901.69
2019-05-22T06:47:15.398Z,100901.16
2019-05-22T06:49:59.183Z,100898.12
2019-05-22T06:52:29.213Z,100906.92
2019-05-22T06:54:59.192Z,100919.28
2019-05-22T06:57:33.747Z,100916.23
2019-05-22T07:00:23.264Z,100919.58
2019-05-22T07:02:53.145Z,100914.25
2019-05-22T07:05:23.027Z,100914.25
2019-05-22T07:07:52.703Z,100911.51
2019-05-22T07:10:22.704Z,100913.79
2019-05-22T07:12:52.848Z,100912.38
2019-05-22T07:15:29.137Z,100915.67
2019-05-22T07:17:59.464Z,100914.44
2019-05-22T07:20:32.757Z,100911.95
2019-05-22T07:23:06.164Z,100920.66
2019-05-22T07:25:36.681Z,100926.28
2019-05-22T07:28:08.106Z,100929.91
2019-05-22T07:30:38.631Z,100936.05
2019-05-22T07:33:08.354Z,100933.67
2019-05-22T07:35:50.324Z,100931.91
2019-05-22T07:38:09.827Z,100932.13
2019-05-22T07:40:40.578Z,100935.42
2019-05-22T07:43:10.732Z,100939.13
2019-05-22T07:45:40.897Z,100937.88
2019-05-22T07:48:11.185Z,100942.75
2019-05-22T07:50:48.524Z,100948.47
2019-05-22T07:53:17.350Z,100940.09
2019-05-22T07:55:47.468Z,100946.41
2019-05-22T07:58:19.138Z,100951.25
2019-05-22T08:01:01.899Z,100956.64
2019-05-22T08:03:33.121Z,100957.97
2019-05-22T08:06:03.043Z,100953.67
2019-05-22T08:08:36.075Z,100956.55
2019-05-22T08:11:06.750Z,100958.05
2019-05-22T08:13:37.795Z,100954.15
2019-05-22T08:16:08.576Z,100953.91
2019-05-22T08:18:39.788Z,100956.64
2019-05-22T08:21:10.861Z,100954.36
2019-05-22T08:23:40.729Z,100960.79
2019-05-22T08:26:11.644Z,100963.47
2019-05-22T08:28:41.854Z,100960.95
2019-05-22T08:31:13.285Z,100966.33
2019-05-22T08:33:43.310Z,100960.67
2019-05-22T08:36:12.960Z,100961.78
2019-05-22T08:38:44.929Z,100970.92
2019-05-22T08:41:16.318Z,100971.66
2019-05-22T08:44:13.811Z,100975.95
2019-05-22T08:46:18.995Z,100968.79
2019-05-22T08:48:49.419Z,100978.45
2019-05-22T08:51:19.659Z,100975.05
2019-05-22T08:53:49.832Z,100985.13
2019-05-22T08:56:20.215Z,100986.21
2019-05-22T08:58:51.449Z,100982.39
2019-05-22T09:01:22.575Z,100983.41
2019-05-22T09:03:52.924Z,100989.92
2019-05-22T09:06:22.680Z,100988.16
2019-05-22T09:08:52.263Z,100991.19
2019-05-22T09:11:21.956Z,100990.23
2019-05-22T09:13:51.593Z,100989.13
2019-05-22T09:16:21.620Z,100988.95
2019-05-22T09:18:52.475Z,100991.84
2019-05-22T09:21:22.666Z,100989.49
2019-05-22T09:23:52.204Z,100987.65
2019-05-22T09:26:22.865Z,100989.21
2019-05-22T09:28:52.825Z,100991.70
2019-05-22T09:31:22.973Z,100991.09
2019-05-22T09:33:53.613Z,100984.52
2019-05-22T09:36:23.479Z,100988.63
2019-05-22T09:38:53.553Z,100995.97
2019-05-22T09:41:23.337Z,100993.39
2019-05-22T09:43:52.942Z,100992.58
2019-05-22T09:46:24.302Z,100997.82
2019-05-22T09:48:53.867Z,101003.85
2019-05-22T09:51:24.038Z,100888.11
2019-05-22T09:53:53.888Z,100996.48
2019-05-22T09:56:24.223Z,100994.81
2019-05-22T09:58:53.889Z,100995.66
2019-05-22T10:01:23.740Z,100994.20
2019-05-22T10:03:53.483Z,100995.38
2019-05-22T10:06:23.097Z,100992.66
2019-05-22T10:08:52.832Z,100994.34
2019-05-22T10:11:22.879Z,100998.77
2019-05-22T10:13:52.902Z,101001.41
2019-05-22T10:16:23.095Z,101008.48
2019-05-22T10:18:53.705Z,101005.77
2019-05-22T10:21:24.485Z,101010.22
2019-05-22T10:23:54.603Z,101011.00
2019-05-22T10:26:25.009Z,101015.59
2019-05-22T10:28:57.196Z,101017.32
2019-05-22T10:31:27.212Z,101017.66
2019-05-22T10:33:57.013Z,101023.95
2019-05-22T10:36:26.509Z,101022.24
2019-05-22T10:38:56.818Z,101027.69
2019-05-22T10:41:26.905Z,101024.88
2019-05-22T10:43:57.426Z,101022.16
2019-05-22T10:46:27.137Z,101024.08
2019-05-22T10:48:57.326Z,101025.02
2019-05-22T10:51:27.421Z,101021.93
2019-05-22T10:53:56.947Z,101027.09
2019-05-22T10:56:26.972Z,101033.63
2019-05-22T10:58:56.920Z,101036.16
2019-05-22T11:01:27.675Z,101036.87
2019-05-22T11:03:58.345Z,101042.42
2019-05-22T11:06:30.452Z,101034.24
2019-05-22T11:09:00.867Z,101042.53
2019-05-22T11:11:30.877Z,101037.66
2019-05-22T11:14:03.362Z,101043.59
2019-05-22T11:16:33.861Z,101045.62
2019-05-22T11:19:04.006Z,101050.22
2019-05-22T11:21:34.791Z,101051.48
2019-05-22T11:24:05.305Z,101052.70
2019-05-22T11:26:35.025Z,101055.26
2019-05-22T11:29:06.530Z,101054.03
2019-05-22T11:31:36.393Z,101062.06
2019-05-22T11:34:06.590Z,100941.48
2019-05-22T11:36:36.871Z,101053.09
2019-05-22T11:39:11.460Z,101055.47
2019-05-22T11:41:41.966Z,101057.57
2019-05-22T11:44:11.886Z,101057.08
2019-05-22T11:46:41.658Z,101053.77
2019-05-22T11:49:11.892Z,101056.25
2019-05-22T11:51:41.777Z,101058.56
2019-05-22T11:54:11.587Z,101057.42
2019-05-22T11:56:41.608Z,101055.77
2019-05-22T11:59:11.305Z,101062.55
2019-05-22T12:01:41.320Z,101053.03
2019-05-22T12:04:12.647Z,101060.29
2019-05-22T12:06:43.955Z,101061.00
2019-05-22T12:09:15.687Z,101068.86
2019-05-22T12:11:45.678Z,101068.25
2019-05-22T12:14:16.670Z,101070.86
2019-05-22T12:16:47.875Z,101076.80
2019-05-22T12:19:17.631Z,101083.06
2019-05-22T12:21:47.410Z,101085.05
2019-05-22T12:24:27.310Z,101077.20
2019-05-22T12:26:49.215Z,101080.31
2019-05-22T12:29:19.162Z,101073.39
2019-05-22T12:31:49.321Z,101079.97
2019-05-22T12:34:19.814Z,101071.96
2019-05-22T12:36:51.495Z,101079.52
2019-05-22T12:39:23.460Z,101079.67
2019-05-22T12:41:54.262Z,101081.55
2019-05-22T12:44:24.599Z,101077.15
2019-05-22T12:46:54.768Z,101076.56
2019-05-22T12:49:27.280Z,100963.69
2019-05-22T12:51:57.366Z,101075.03
2019-05-22T12:54:43.416Z,101072.62
2019-05-22T12:56:59.043Z,101077.66
2019-05-22T12:59:29.237Z,101072.17
2019-05-22T13:02:01.189Z,101068.31
2019-05-22T13:04:31.915Z,101076.99
2019-05-22T13:07:02.727Z,101074.91
2019-05-22T13:09:32.989Z,101080.16
2019-05-22T13:12:04.092Z,101089.67
2019-05-22T13:14:33.900Z,101087.84
2019-05-22T13:17:04.003Z,101088.00
2019-05-22T13:19:36.399Z,101094.28
2019-05-22T13:22:09.569Z,101088.33
2019-05-22T13:24:41.019Z,101091.20
2019-05-22T13:27:13.942Z,101094.75
2019-05-22T13:29:44.405Z,101076.77
2019-05-22T13:32:16.080Z,101105.43
2019-05-22T13:34:46.880Z,101113.34
2019-05-22T13:37:17.754Z,101107.00
2019-05-22T13:39:47.250Z,101107.78
2019-05-22T13:42:17.554Z,101084.06
2019-05-22T13:44:47.634Z,101108.58
2019-05-22T13:47:17.104Z,101116.21
2019-05-22T13:49:46.842Z,101107.80
2019-05-22T13:52:16.482Z,101107.11
2019-05-22T13:54:46.474Z,101112.23
2019-05-22T13:57:16.417Z,101112.47
2019-05-22T13:59:46.397Z,101111.69
2019-05-22T14:02:16.069Z,101113.55
2019-05-22T14:04:46.384Z,101108.64
2019-05-22T14:07:16.399Z,101111.28
2019-05-22T14:09:47.050Z,101113.78
2019-05-22T14:12:18.477Z,101115.23
2019-05-22T14:14:48.514Z,101118.15
2019-05-22T14:17:18.290Z,101117.22
2019-05-22T14:19:50.942Z,101116.44
2019-05-22T14:22:25.829Z,101120.73
2019-05-22T14:24:56.065Z,101129.88
2019-05-22T14:27:26.363Z,101128.47
2019-05-22T14:29:56.610Z,101128.22
2019-05-22T14:32:29.707Z,101138.26
2019-05-22T14:35:03.405Z,101127.61
2019-05-22T14:37:33.942Z,101133.19
2019-05-22T14:40:04.973Z,101134.69
2019-05-22T14:42:35.770Z,101138.88
2019-05-22T14:45:06.377Z,101143.48
2019-05-22T14:47:36.370Z,101149.48
2019-05-22T14:50:08.018Z,101148.70
2019-05-22T14:52:38.119Z,101152.68
2019-05-22T14:55:08.075Z,101145.03
2019-05-22T14:57:40.656Z,101147.52
2019-05-22T15:00:13.194Z,101152.75
2019-05-22T15:02:42.985Z,101151.13
2019-05-22T15:05:14.109Z,101149.05
2019-05-22T15:07:45.095Z,101154.55
2019-05-22T15:10:17.067Z,101151.45
2019-05-22T15:12:47.665Z,101148.72
2019-05-22T15:15:18.986Z,101146.00
2019-05-22T15:17:49.570Z,101156.28
2019-05-22T15:20:23.676Z,101160.13
2019-05-22T15:22:56.259Z,101164.90
2019-05-22T15:25:25.226Z,101167.48
2019-05-22T15:27:55.327Z,101172.27
2019-05-22T15:30:25.507Z,101172.84
2019-05-22T15:32:55.565Z,101172.75
2019-05-22T15:35:25.820Z,101174.59
2019-05-22T15:37:55.870Z,101181.38
2019-05-22T15:40:25.717Z,101189.56
2019-05-22T15:42:55.374Z,101195.59
2019-05-22T15:45:27.521Z,101192.97
2019-05-22T15:48:00.867Z,101194.08
2019-05-22T15:50:34.042Z,101187.41
2019-05-22T15:53:11.950Z,101193.36
2019-05-22T15:55:41.480Z,101190.77
2019-05-22T15:58:13.909Z,101196.03
2019-05-22T16:00:48.218Z,101186.80
2019-05-22T16:03:22.971Z,101189.86
2019-05-22T16:05:55.259Z,101189.16
2019-05-22T16:08:25.450Z,101189.10
2019-05-22T16:10:59.613Z,101197.13
2019-05-22T16:13:30.964Z,101205.23
2019-05-22T16:16:06.569Z,101203.53
2019-05-22T16:18:37.512Z,101204.95
2019-05-22T16:21:10.397Z,101213.23
2019-05-22T16:23:42.010Z,101208.42
2019-05-22T16:26:13.808Z,101216.83
2019-05-22T16:28:46.154Z,101216.05
2019-05-22T16:31:18.216Z,101226.53
2019-05-22T16:33:49.498Z,101224.81
2019-05-22T16:36:23.960Z,101226.47
2019-05-22T16:38:55.398Z,101217.21
2019-05-22T16:41:25.923Z,101217.53
2019-05-22T16:43:56.761Z,101214.97
2019-05-22T16:46:27.283Z,101216.70
2019-05-22T16:48:57.700Z,101218.85
2019-05-22T16:51:30.236Z,101212.27
2019-05-22T16:54:07.340Z,101212.74
2019-05-22T16:56:38.330Z,101210.20
2019-05-22T16:59:11.189Z,101213.72
2019-05-22T17:01:57.602Z,101209.02
2019-05-22T17:04:13.588Z,101217.77
2019-05-22T17:06:45.558Z,101224.85
2019-05-22T17:09:16.673Z,101237.22
2019-05-22T17:11:47.366Z,101240.75
2019-05-22T17:14:19.014Z,101250.84
2019-05-22T17:16:50.068Z,101243.39
2019-05-22T17:19:27.231Z,101253.00
2019-05-22T17:21:53.690Z,101254.67
2019-05-22T17:24:24.612Z,101253.80
2019-05-22T17:26:55.150Z,101263.51
2019-05-22T17:29:26.516Z,101250.22
2019-05-22T17:31:56.874Z,101257.75
2019-05-22T17:34:35.800Z,101250.30
2019-05-22T17:37:12.622Z,101258.25
2019-05-22T17:39:46.717Z,101252.19
2019-05-22T17:42:19.437Z,101259.16
2019-05-22T17:44:53.029Z,101255.25
2019-05-22T17:47:26.497Z,101260.09
2019-05-22T17:49:56.975Z,101255.22
2019-05-22T17:52:29.674Z,101249.48
2019-05-22T17:55:01.010Z,101253.05
2019-05-22T17:57:32.453Z,101254.39
2019-05-22T18:00:03.943Z,101254.69
2019-05-22T18:02:36.510Z,101265.38
2019-05-22T18:05:09.842Z,101265.71
2019-05-22T18:07:40.608Z,101267.97
2019-05-22T18:10:11.703Z,101272.77
2019-05-22T18:12:42.210Z,101274.96
2019-05-22T18:15:14.717Z,101283.73
2019-05-22T18:17:45.233Z,101292.13
2019-05-22T18:20:15.965Z,101282.97
2019-05-22T18:22:46.082Z,101283.86
2019-05-22T18:25:16.225Z,101281.23
2019-05-22T18:27:46.103Z,101279.45
2019-05-22T18:30:17.623Z,101288.80
2019-05-22T18:32:47.159Z,101289.21
2019-05-22T18:35:17.037Z,101276.84
2019-05-22T18:37:46.854Z,101280.34
2019-05-22T18:40:19.032Z,101274.16
2019-05-22T18:42:49.624Z,101278.19
2019-05-22T18:45:21.476Z,101283.92
2019-05-22T18:47:51.537Z,101281.31
2019-05-22T18:50:21.709Z,101288.80
2019-05-22T18:52:51.910Z,101286.50
2019-05-22T18:55:21.572Z,101296.23
2019-05-22T18:57:51.311Z,101303.27
2019-05-22T19:00:24.796Z,101302.87
2019-05-22T19:02:54.714Z,101308.56
2019-05-22T19:05:27.212Z,101309.41
2019-05-22T19:07:57.302Z,101313.83
2019-05-22T19:10:27.087Z,101320.89
2019-05-22T19:12:59.420Z,101311.25
2019-05-22T19:15:29.549Z,101312.14
2019-05-22T19:17:59.728Z,101317.85
2019-05-22T19:20:31.457Z,101324.50
2019-05-22T19:23:02.075Z,101322.73
2019-05-22T19:25:33.444Z,101328.86
2019-05-22T19:28:03.384Z,101326.19
2019-05-22T19:30:33.500Z,101339.38
2019-05-22T19:33:03.127Z,101342.91
2019-05-22T19:35:33.557Z,101351.72
2019-05-22T19:38:04.698Z,101349.92
2019-05-22T19:40:35.041Z,101351.72
2019-05-22T19:43:05.578Z,101359.68
2019-05-22T19:45:36.144Z,101364.96
2019-05-22T19:48:07.565Z,101359.23
2019-05-22T19:50:38.056Z,101364.09
2019-05-22T19:53:18.669Z,101364.97
2019-05-22T19:55:42.145Z,101370.66
2019-05-22T19:58:12.484Z,101370.70
2019-05-22T20:00:42.219Z,101368.05
2019-05-22T20:03:12.135Z,101366.70
2019-05-22T20:05:42.187Z,101367.60
2019-05-22T20:08:12.400Z,101371.14
2019-05-22T20:10:43.407Z,101365.83
2019-05-22T20:13:13.227Z,101364.96
2019-05-22T20:15:44.247Z,101369.37
2019-05-22T20:18:14.245Z,101375.11
2019-05-22T20:20:44.447Z,101376.42
2019-05-22T20:23:15.583Z,101381.69
2019-05-22T20:25:45.373Z,101378.61
2019-05-22T20:28:16.304Z,101375.13
2019-05-22T20:30:46.653Z,101377.77
2019-05-22T20:33:16.506Z,101380.41
2019-05-22T20:35:46.667Z,101379.94
2019-05-22T20:38:17.155Z,101377.33
2019-05-22T20:40:47.301Z,101378.21
2019-05-22T20:43:17.043Z,101376.42
2019-05-22T20:45:46.773Z,101382.16
2019-05-22T20:48:26.058Z,101381.70
2019-05-22T20:50:57.532Z,101378.18
2019-05-22T20:53:27.407Z,101379.94
2019-05-22T20:55:58.474Z,101379.06
2019-05-22T20:58:30.725Z,101387.85
2019-05-22T21:01:00.724Z,101390.49
2019-05-22T21:03:33.185Z,101388.69
2019-05-22T21:06:07.072Z,101393.53
2019-05-22T21:08:38.054Z,101387.81
2019-05-22T21:11:09.777Z,101388.75
2019-05-22T21:13:40.140Z,101382.59
2019-05-22T21:16:11.053Z,101383.05
2019-05-22T21:19:00.975Z,101389.64
2019-05-22T21:21:31.184Z,101388.73
2019-05-22T21:24:10.031Z,101394.03
2019-05-22T21:26:34.333Z,101394.03
2019-05-22T21:29:04.457Z,101396.66
2019-05-22T21:31:35.241Z,101388.34
2019-05-22T21:34:05.673Z,101394.05
2019-05-22T21:36:36.141Z,101394.05
2019-05-22T21:39:09.928Z,101389.66
2019-05-22T21:41:40.272Z,101394.48
2019-05-22T21:44:10.416Z,101401.95
2019-05-22T21:46:41.950Z,101399.75
2019-05-22T21:49:12.380Z,101386.56
2019-05-22T21:51:42.126Z,101391.85
2019-05-22T21:54:12.322Z,101396.69
2019-05-22T21:56:43.430Z,101396.69
2019-05-22T21:59:14.223Z,101392.30
2019-05-22T22:02:10.160Z,101372.96
2019-05-22T22:04:39.938Z,101401.09
2019-05-22T22:07:10.777Z,101396.70
2019-05-22T22:09:42.629Z,101394.06
2019-05-22T22:12:15.149Z,101397.57
2019-05-22T22:14:45.564Z,101398.02
2019-05-22T22:17:16.708Z,101401.96
2019-05-22T22:19:47.074Z,101399.36
2019-05-22T22:22:23.040Z,101408.14
2019-05-22T22:24:53.269Z,101402.84
2019-05-22T22:27:22.893Z,101409.01
2019-05-22T22:29:53.947Z,101408.12
2019-05-22T22:32:25.627Z,101417.81
2019-05-22T22:34:55.459Z,101423.97
2019-05-22T22:37:26.600Z,101416.94
2019-05-22T22:39:59.387Z,101425.28
2019-05-22T22:42:31.718Z,101422.20
2019-05-22T22:45:05.487Z,101420.02
2019-05-22T22:47:37.906Z,101427.47
2019-05-22T22:50:10.005Z,101427.02
2019-05-22T22:52:39.915Z,101424.41
2019-05-22T22:55:13.443Z,101416.05
2019-05-22T22:57:42.965Z,101426.60
2019-05-22T23:00:17.469Z,101423.08
2019-05-22T23:02:49.302Z,101423.06
2019-05-22T23:05:20.050Z,101432.75
2019-05-22T23:07:49.615Z,101433.61
2019-05-22T23:10:21.904Z,101438.01
2019-05-22T23:12:54.442Z,101430.57
2019-05-22T23:15:26.989Z,101430.11
2019-05-22T23:17:56.725Z,101430.56
2019-05-22T23:20:24.361Z,101429.66
2019-05-22T23:22:52.629Z,101437.16
2019-05-22T23:25:23.786Z,101432.73
2019-05-22T23:27:53.708Z,101434.08
2019-05-22T23:30:23.952Z,101435.83
2019-05-22T23:32:54.663Z,101432.33
2019-05-22T23:35:24.799Z,101428.36
2019-05-22T23:37:54.365Z,101436.26
2019-05-22T23:40:29.226Z,101434.06
2019-05-22T23:43:01.964Z,101438.89
2019-05-22T23:45:32.265Z,101436.25
2019-05-22T23:48:14.439Z,101433.17
2019-05-22T23:50:45.781Z,101438.02
2019-05-22T23:53:18.507Z,101385.67
2019-05-22T23:55:48.991Z,101435.36
2019-05-22T23:58:20.174Z,101438.02
